createdAt,value
2023-05-03T00:05:01.317Z,3.30
2023-05-03T00:10:05.185Z,3.10
2023-05-03T00:15:09.620Z,3.80
2023-05-03T00:20:12.753Z,4.00
2023-05-03T00:25:15.954Z,4.50
2023-05-03T00:30:19.635Z,4.40
2023-05-03T00:35:22.787Z,4.10
2023-05-03T00:40:26.199Z,6.20
2023-05-03T00:45:34.385Z,6.20
2023-05-03T00:50:37.643Z,6.20
2023-05-03T00:55:41.466Z,6.10
2023-05-03T01:00:44.485Z,4.90
2023-05-03T01:06:23.225Z,5.50
2023-05-03T01:11:42.098Z,5.90
2023-05-03T01:16:51.966Z,5.80
2023-05-03T01:22:26.599Z,6.10
2023-05-03T01:27:29.615Z,5.90
2023-05-03T01:32:48.178Z,5.70
2023-05-03T01:37:52.320Z,6.10
2023-05-03T01:42:56.967Z,5.20
2023-05-03T01:48:00.158Z,5.20
2023-05-03T01:53:03.289Z,4.80
2023-05-03T01:58:06.394Z,4.10
2023-05-03T02:03:09.447Z,5.90
2023-05-03T02:08:12.510Z,6.10
2023-05-03T02:13:16.671Z,6.20
2023-05-03T02:18:20.470Z,5.90
2023-05-03T02:23:23.961Z,5.20
2023-05-03T02:28:27.105Z,6.30
2023-05-03T02:33:30.012Z,6.30
2023-05-03T02:38:33.311Z,5.10
2023-05-03T02:43:36.220Z,6.00
2023-05-03T02:48:39.329Z,5.50
2023-05-03T02:53:42.232Z,5.70
2023-05-03T02:58:45.234Z,5.90
2023-05-03T03:03:48.957Z,6.30
2023-05-03T03:08:52.071Z,6.40
2023-05-03T03:13:55.190Z,6.60
2023-05-03T03:18:58.284Z,7.20
2023-05-03T03:24:01.310Z,8.80
2023-05-03T03:29:04.199Z,5.90
2023-05-03T03:34:07.202Z,4.10
2023-05-03T03:39:10.108Z,5.20
2023-05-03T03:44:13.013Z,4.40
2023-05-03T03:49:16.025Z,4.80
2023-05-03T03:54:19.130Z,4.90
2023-05-03T03:59:22.245Z,6.90
2023-05-03T04:04:25.475Z,11.20
2023-05-03T04:09:28.554Z,8.60
2023-05-03T04:14:31.558Z,7.10
2023-05-03T04:19:35.503Z,5.90
2023-05-03T04:24:39.332Z,4.80
2023-05-03T04:29:42.322Z,4.00
2023-05-03T04:34:47.885Z,4.10
2023-05-03T04:39:52.225Z,4.20
2023-05-03T04:44:55.334Z,4.00
2023-05-03T04:49:58.844Z,3.90
2023-05-03T04:55:01.960Z,4.20
2023-05-03T05:00:10.858Z,4.10
2023-05-03T05:05:13.909Z,4.90
2023-05-03T05:10:16.917Z,4.20
2023-05-03T05:15:20.025Z,3.90
2023-05-03T05:20:23.139Z,3.80
2023-05-03T05:25:26.344Z,3.10
2023-05-03T05:30:29.555Z,3.00
2023-05-03T05:35:33.894Z,3.20
2023-05-03T05:40:36.909Z,3.20
2023-05-03T05:45:40.010Z,3.70
2023-05-03T05:50:43.226Z,3.90
2023-05-03T05:55:46.132Z,4.10
2023-05-03T06:00:49.407Z,4.20
2023-05-03T06:05:52.567Z,3.70
2023-05-03T06:10:55.686Z,4.30
2023-05-03T06:15:58.872Z,5.60
2023-05-03T06:21:01.981Z,4.60
2023-05-03T06:26:05.097Z,4.10
2023-05-03T06:31:08.058Z,4.60
2023-05-03T06:36:11.209Z,3.80
2023-05-03T06:41:14.208Z,3.80
2023-05-03T06:46:19.629Z,4.30
2023-05-03T06:51:28.417Z,4.10
2023-05-03T06:56:31.938Z,3.70
2023-05-03T07:01:35.080Z,5.10
2023-05-03T07:06:52.520Z,4.00
2023-05-03T07:11:58.866Z,4.30
2023-05-03T07:17:02.187Z,2.80
2023-05-03T07:22:05.724Z,2.50
2023-05-03T07:27:09.241Z,3.00
2023-05-03T07:32:12.560Z,2.80
2023-05-03T07:37:15.866Z,3.20
2023-05-03T07:42:18.962Z,3.10
2023-05-03T07:47:22.576Z,5.00
2023-05-03T07:52:25.686Z,2.50
2023-05-03T07:57:28.892Z,2.40
2023-05-03T08:02:32.309Z,3.20
2023-05-03T08:07:35.623Z,2.60
2023-05-03T08:12:39.134Z,2.20
2023-05-03T08:17:43.999Z,4.30
2023-05-03T08:22:47.439Z,2.80
2023-05-03T08:27:50.624Z,2.30
2023-05-03T08:32:54.799Z,2.00
2023-05-03T08:37:58.302Z,1.80
2023-05-03T08:43:08.973Z,1.80
2023-05-03T08:48:16.434Z,2.00
2023-05-03T08:53:19.690Z,1.90
2023-05-03T08:58:23.401Z,2.30
2023-05-03T09:03:26.658Z,1.90
2023-05-03T09:08:30.676Z,2.30
2023-05-03T09:13:33.761Z,2.30
2023-05-03T09:18:37.774Z,1.70
2023-05-03T09:23:41.610Z,2.20
2023-05-03T09:28:44.632Z,1.80
2023-05-03T09:33:47.627Z,1.40
2023-05-03T09:38:52.459Z,1.50
2023-05-03T09:43:56.967Z,1.40
2023-05-03T09:49:00.019Z,1.90
2023-05-03T09:54:03.845Z,1.90
2023-05-03T09:59:07.676Z,1.80
2023-05-03T10:04:11.665Z,1.80
2023-05-03T10:09:33.758Z,1.80
2023-05-03T10:14:37.075Z,2.00
2023-05-03T10:19:55.178Z,2.00
2023-05-03T10:25:01.708Z,1.80
2023-05-03T10:30:06.792Z,1.80
2023-05-03T10:35:12.851Z,2.50
2023-05-03T10:40:17.821Z,1.90
2023-05-03T10:45:30.824Z,2.00
2023-05-03T10:50:34.567Z,2.20
2023-05-03T10:55:38.293Z,2.10
2023-05-03T11:00:44.246Z,2.10
2023-05-03T11:05:51.878Z,2.00
2023-05-03T11:11:00.015Z,1.90
2023-05-03T11:16:05.940Z,2.30
2023-05-03T11:21:11.261Z,2.20
2023-05-03T11:26:15.211Z,1.90
2023-05-03T11:31:18.417Z,2.10
2023-05-03T11:36:21.789Z,2.30
2023-05-03T11:41:24.795Z,2.30
2023-05-03T11:46:32.356Z,2.70
2023-05-03T11:51:35.951Z,2.30
2023-05-03T11:56:39.242Z,2.40
2023-05-03T12:01:43.421Z,2.50
2023-05-03T12:06:54.106Z,2.40
2023-05-03T12:11:59.087Z,2.60
2023-05-03T12:17:03.000Z,3.10
2023-05-03T12:22:25.729Z,2.60
2023-05-03T12:27:32.437Z,2.60
2023-05-03T12:32:38.900Z,2.40
2023-05-03T12:37:43.840Z,2.80
2023-05-03T12:42:47.098Z,2.60
2023-05-03T12:47:50.500Z,2.50
2023-05-03T12:52:54.045Z,2.60
2023-05-03T12:58:18.168Z,2.20
2023-05-03T13:03:22.102Z,5.10
2023-05-03T13:08:33.522Z,2.00
2023-05-03T13:13:38.093Z,11.90
2023-05-03T13:18:43.032Z,2.20
2023-05-03T13:23:47.866Z,2.00
2023-05-03T13:28:51.088Z,1.80
2023-05-03T13:33:54.713Z,2.20
2023-05-03T13:38:58.326Z,2.10
2023-05-03T13:44:01.540Z,1.90
2023-05-03T13:49:08.345Z,2.60
2023-05-03T13:54:11.563Z,1.90
2023-05-03T13:59:15.127Z,2.20
2023-05-03T14:04:18.203Z,2.30
2023-05-03T14:09:21.590Z,2.00
2023-05-03T14:14:27.821Z,1.90
2023-05-03T14:19:30.888Z,1.90
2023-05-03T14:24:34.114Z,2.30
2023-05-03T14:29:37.306Z,2.10
2023-05-03T14:34:40.407Z,2.00
2023-05-03T14:39:43.431Z,1.70
2023-05-03T14:44:46.528Z,2.20
2023-05-03T14:49:49.740Z,1.90
2023-05-03T14:54:53.972Z,1.80
2023-05-03T14:59:57.087Z,1.70
2023-05-03T15:05:01.222Z,1.90
2023-05-03T15:10:05.508Z,1.70
2023-05-03T15:15:10.294Z,1.90
2023-05-03T15:20:15.674Z,1.70
2023-05-03T15:25:18.677Z,1.80
2023-05-03T15:30:21.785Z,2.30
2023-05-03T15:35:24.804Z,1.90
2023-05-03T15:40:28.423Z,1.90
2023-05-03T15:45:31.842Z,1.80
2023-05-03T15:50:35.052Z,1.70
2023-05-03T15:55:38.672Z,2.90
2023-05-03T16:00:42.477Z,2.10
2023-05-03T16:05:47.019Z,2.00
2023-05-03T16:10:51.069Z,2.10
2023-05-03T16:15:58.297Z,1.70
2023-05-03T16:21:02.829Z,1.70
2023-05-03T16:26:16.235Z,1.90
2023-05-03T16:31:19.448Z,1.70
2023-05-03T16:36:22.886Z,1.90
2023-05-03T16:41:25.988Z,1.70
2023-05-03T16:46:31.353Z,2.00
2023-05-03T16:51:34.776Z,2.00
2023-05-03T16:56:37.776Z,1.60
2023-05-03T17:01:40.890Z,1.80
2023-05-03T17:06:44.114Z,1.80
2023-05-03T17:11:47.409Z,1.40
2023-05-03T17:16:51.723Z,1.50
2023-05-03T17:21:55.158Z,2.40
2023-05-03T17:26:58.165Z,2.00
2023-05-03T17:32:01.548Z,3.10
2023-05-03T17:37:05.824Z,2.70
2023-05-03T17:42:09.638Z,4.40
2023-05-03T17:47:12.564Z,5.40
2023-05-03T17:52:15.760Z,4.20
2023-05-03T17:57:20.745Z,2.50
2023-05-03T18:02:24.079Z,2.30
2023-05-03T18:07:27.649Z,2.00
2023-05-03T18:12:31.541Z,2.00
2023-05-03T18:17:34.732Z,2.90
2023-05-03T18:22:38.000Z,2.30
2023-05-03T18:27:41.102Z,2.70
2023-05-03T18:32:44.353Z,3.20
2023-05-03T18:37:47.634Z,3.40
2023-05-03T18:42:50.737Z,2.80
2023-05-03T18:47:53.817Z,3.10
2023-05-03T18:52:56.955Z,2.70
2023-05-03T18:58:00.729Z,3.60
2023-05-03T19:03:04.438Z,4.80
2023-05-03T19:08:07.517Z,4.80
2023-05-03T19:13:10.687Z,5.40
2023-05-03T19:18:16.080Z,4.40
2023-05-03T19:23:19.715Z,4.60
2023-05-03T19:28:23.127Z,5.00
2023-05-03T19:33:26.537Z,5.40
2023-05-03T19:38:30.268Z,5.00
2023-05-03T19:43:33.997Z,4.40
2023-05-03T19:48:36.993Z,4.40
2023-05-03T19:53:40.389Z,3.60
2023-05-03T19:58:43.649Z,3.90
2023-05-03T20:03:47.547Z,3.40
2023-05-03T20:08:51.387Z,4.00
2023-05-03T20:13:54.489Z,3.10
2023-05-03T20:18:57.794Z,3.50
2023-05-03T20:24:01.010Z,4.10
2023-05-03T20:29:04.606Z,3.60
2023-05-03T20:34:08.043Z,3.80
2023-05-03T20:39:12.256Z,3.50
2023-05-03T20:44:15.192Z,3.30
2023-05-03T20:49:18.819Z,3.20
2023-05-03T20:54:21.911Z,3.40
2023-05-03T20:59:25.121Z,4.40
2023-05-03T21:04:28.237Z,4.60
2023-05-03T21:09:31.751Z,4.00
2023-05-03T21:14:34.840Z,4.00
2023-05-03T21:19:39.500Z,4.40
2023-05-03T21:24:42.512Z,3.40
2023-05-03T21:29:45.517Z,3.50
2023-05-03T21:34:49.747Z,2.50
2023-05-03T21:40:01.030Z,2.70
2023-05-03T21:45:06.420Z,2.80
2023-05-03T21:50:09.722Z,2.90
2023-05-03T21:55:13.141Z,3.20
2023-05-03T22:00:21.000Z,3.20
2023-05-03T22:05:24.578Z,3.00
2023-05-03T22:10:27.688Z,2.70
2023-05-03T22:15:33.665Z,3.40
2023-05-03T22:20:36.782Z,3.30
2023-05-03T22:25:39.688Z,3.70
2023-05-03T22:30:42.697Z,3.10
2023-05-03T22:35:46.058Z,3.20
2023-05-03T22:40:49.115Z,3.50
2023-05-03T22:45:52.161Z,3.10
2023-05-03T22:50:55.330Z,3.10
2023-05-03T22:56:00.891Z,3.70
2023-05-03T23:01:04.782Z,2.90
2023-05-03T23:06:07.836Z,3.40
2023-05-03T23:11:11.150Z,3.80
2023-05-03T23:16:14.775Z,3.40
2023-05-03T23:21:17.766Z,3.90
2023-05-03T23:26:20.990Z,3.30
2023-05-03T23:31:24.471Z,3.30
2023-05-03T23:36:28.092Z,3.40
2023-05-03T23:41:31.024Z,3.70
2023-05-03T23:46:34.794Z,4.30
2023-05-03T23:51:38.060Z,4.90
2023-05-03T23:56:41.182Z,4.60
